createdAt,value
2022-10-19T00:01:12.535Z,13.03
2022-10-19T00:03:40.146Z,12.97
2022-10-19T00:06:16.259Z,12.92
2022-10-19T00:08:43.547Z,12.85
2022-10-19T00:11:11.748Z,12.75
2022-10-19T00:13:38.918Z,12.66
2022-10-19T00:16:15.257Z,12.57
2022-10-19T00:18:44.569Z,12.51
2022-10-19T00:21:14.965Z,12.45
2022-10-19T00:23:42.219Z,12.37
2022-10-19T00:26:09.626Z,12.32
2022-10-19T00:28:36.620Z,12.29
2022-10-19T00:31:11.084Z,12.18
2022-10-19T00:33:38.057Z,12.09
2022-10-19T00:36:06.418Z,12.01
2022-10-19T00:38:32.942Z,11.96
2022-10-19T00:40:59.517Z,11.89
2022-10-19T00:43:30.971Z,11.81
2022-10-19T00:45:57.773Z,11.71
2022-10-19T00:48:32.169Z,11.63
2022-10-19T00:51:00.223Z,11.60
2022-10-19T00:53:30.669Z,11.55
2022-10-19T00:55:59.953Z,11.51
2022-10-19T00:58:27.274Z,11.48
2022-10-19T01:00:54.458Z,11.45
2022-10-19T01:03:21.235Z,11.39
2022-10-19T01:05:49.159Z,11.32
2022-10-19T01:08:16.214Z,11.29
2022-10-19T01:11:15.202Z,11.29
2022-10-19T01:13:55.175Z,11.26
2022-10-19T01:16:27.437Z,11.28
2022-10-19T01:19:11.122Z,11.28
2022-10-19T01:22:27.175Z,11.28
2022-10-19T01:24:57.465Z,11.32
2022-10-19T01:28:02.110Z,11.37
2022-10-19T01:31:03.037Z,11.46
2022-10-19T01:33:35.197Z,11.49
2022-10-19T01:36:17.704Z,11.54
2022-10-19T01:38:53.401Z,11.59
2022-10-19T01:41:45.022Z,11.62
2022-10-19T01:44:18.655Z,11.67
2022-10-19T01:46:58.261Z,11.68
2022-10-19T01:49:34.394Z,11.70
2022-10-19T01:52:05.199Z,11.69
2022-10-19T01:54:38.018Z,11.73
2022-10-19T01:57:09.801Z,11.72
2022-10-19T01:59:38.265Z,11.73
2022-10-19T02:02:09.293Z,11.72
2022-10-19T02:04:37.714Z,11.73
2022-10-19T02:07:07.173Z,11.71
2022-10-19T02:09:33.858Z,11.74
2022-10-19T02:12:05.449Z,11.76
2022-10-19T02:14:39.318Z,11.75
2022-10-19T02:17:11.074Z,11.72
2022-10-19T02:19:38.124Z,11.73
2022-10-19T02:22:05.725Z,11.76
2022-10-19T02:24:32.270Z,11.76
2022-10-19T02:27:01.644Z,11.75
2022-10-19T02:29:28.257Z,11.74
2022-10-19T02:31:54.838Z,11.74
2022-10-19T02:34:21.518Z,11.70
2022-10-19T02:36:48.735Z,11.68
2022-10-19T02:39:15.338Z,11.64
2022-10-19T02:41:49.130Z,11.61
2022-10-19T02:44:46.846Z,11.62
2022-10-19T02:47:21.315Z,11.59
2022-10-19T02:49:48.810Z,11.54
2022-10-19T02:52:15.589Z,11.51
2022-10-19T02:54:44.314Z,11.45
2022-10-19T02:57:23.255Z,11.38
2022-10-19T02:59:50.409Z,11.30
2022-10-19T03:02:19.077Z,11.26
2022-10-19T03:07:18.807Z,11.14
2022-10-19T03:09:45.888Z,11.13
2022-10-19T03:12:13.577Z,11.12
2022-10-19T03:14:40.513Z,11.08
2022-10-19T03:17:07.540Z,11.02
2022-10-19T03:19:35.625Z,11.01
2022-10-19T03:22:02.903Z,10.98
2022-10-19T03:24:30.840Z,10.95
2022-10-19T03:26:57.474Z,10.97
2022-10-19T03:29:23.995Z,10.98
2022-10-19T03:31:51.135Z,10.99
2022-10-19T03:34:17.997Z,10.96
2022-10-19T03:36:44.780Z,10.94
2022-10-19T03:39:13.824Z,10.95
2022-10-19T03:41:40.982Z,10.98
2022-10-19T03:44:09.875Z,10.98
2022-10-19T03:46:37.569Z,10.99
2022-10-19T03:49:04.650Z,10.98
2022-10-19T03:51:32.660Z,11.00
2022-10-19T03:54:04.154Z,11.02
2022-10-19T03:56:31.849Z,11.05
2022-10-19T03:59:00.889Z,11.04
2022-10-19T04:01:36.965Z,11.04
2022-10-19T04:04:16.351Z,11.07
2022-10-19T04:06:46.340Z,11.09
2022-10-19T04:09:16.038Z,11.08
2022-10-19T04:11:43.573Z,11.08
2022-10-19T04:14:18.911Z,11.09
2022-10-19T04:16:54.147Z,11.12
2022-10-19T04:19:20.717Z,11.14
2022-10-19T04:21:48.884Z,11.15
2022-10-19T04:24:18.600Z,11.16
2022-10-19T04:26:48.080Z,11.17
2022-10-19T04:29:16.227Z,11.19
2022-10-19T04:31:42.958Z,11.18
2022-10-19T04:34:09.533Z,11.23
2022-10-19T04:36:36.798Z,11.24
2022-10-19T04:39:04.960Z,11.23
2022-10-19T04:41:32.566Z,11.25
2022-10-19T04:44:02.238Z,11.24
2022-10-19T04:46:32.744Z,11.24
2022-10-19T04:48:59.489Z,11.25
2022-10-19T04:51:27.252Z,11.25
2022-10-19T04:53:58.608Z,11.27
2022-10-19T04:56:27.339Z,11.27
2022-10-19T04:58:58.658Z,11.26
2022-10-19T05:01:27.178Z,11.22
2022-10-19T05:06:24.111Z,11.26
2022-10-19T05:08:51.057Z,11.28
2022-10-19T05:11:18.441Z,11.29
2022-10-19T05:13:46.143Z,11.30
2022-10-19T05:16:17.456Z,11.32
2022-10-19T05:18:52.736Z,11.33
2022-10-19T05:21:21.409Z,11.29
2022-10-19T05:23:51.739Z,11.28
2022-10-19T05:26:20.563Z,11.29
2022-10-19T05:28:49.031Z,11.31
2022-10-19T05:31:18.525Z,11.29
2022-10-19T05:33:45.175Z,11.33
2022-10-19T05:36:25.645Z,11.31
2022-10-19T05:38:54.422Z,11.33
2022-10-19T05:41:22.845Z,11.40
2022-10-19T05:43:57.696Z,11.42
2022-10-19T05:46:26.900Z,11.43
2022-10-19T05:48:55.657Z,11.40
2022-10-19T05:51:28.357Z,11.40
2022-10-19T05:53:55.785Z,11.44
2022-10-19T05:56:26.268Z,11.43
2022-10-19T05:58:55.037Z,11.43
2022-10-19T06:01:22.557Z,11.45
2022-10-19T06:03:54.005Z,11.43
2022-10-19T06:06:22.095Z,11.44
2022-10-19T06:08:50.246Z,11.49
2022-10-19T06:11:29.061Z,11.53
2022-10-19T06:13:57.894Z,11.60
2022-10-19T06:16:39.584Z,11.71
2022-10-19T06:19:06.259Z,11.79
2022-10-19T06:21:34.231Z,11.82
2022-10-19T06:24:04.740Z,11.78
2022-10-19T06:26:33.201Z,11.72
2022-10-19T06:29:01.299Z,11.80
2022-10-19T06:31:37.866Z,11.87
2022-10-19T06:34:05.155Z,11.96
2022-10-19T06:36:32.673Z,12.04
2022-10-19T06:39:01.414Z,12.14
2022-10-19T06:41:32.968Z,12.15
2022-10-19T06:43:59.857Z,12.01
2022-10-19T06:46:26.857Z,11.96
2022-10-19T06:48:59.587Z,11.96
2022-10-19T06:51:28.616Z,11.94
2022-10-19T06:53:58.360Z,11.96
2022-10-19T06:56:26.298Z,11.97
2022-10-19T06:58:53.957Z,11.96
2022-10-19T07:01:22.339Z,11.97
2022-10-19T07:03:53.460Z,11.91
2022-10-19T07:06:20.898Z,11.84
2022-10-19T07:08:47.978Z,11.85
2022-10-19T07:11:17.557Z,11.87
2022-10-19T07:13:44.305Z,11.93
2022-10-19T07:16:17.964Z,11.92
2022-10-19T07:18:51.874Z,11.87
2022-10-19T07:21:21.380Z,11.84
2022-10-19T07:23:48.484Z,11.88
2022-10-19T07:26:23.276Z,11.94
2022-10-19T07:28:50.706Z,11.98
2022-10-19T07:31:21.670Z,12.03
2022-10-19T07:33:53.376Z,12.06
2022-10-19T07:36:20.818Z,12.20
2022-10-19T07:38:47.572Z,12.32
2022-10-19T07:41:17.528Z,12.33
2022-10-19T07:43:46.276Z,12.27
2022-10-19T07:46:15.827Z,12.21
2022-10-19T07:48:43.838Z,12.23
2022-10-19T07:51:13.610Z,12.20
2022-10-19T07:53:40.398Z,12.22
2022-10-19T07:56:15.588Z,12.29
2022-10-19T07:58:45.366Z,12.29
2022-10-19T08:01:15.166Z,12.28
2022-10-19T08:04:43.387Z,12.29
2022-10-19T08:06:28.952Z,12.33
2022-10-19T08:08:56.217Z,12.46
2022-10-19T08:11:28.781Z,12.55
2022-10-19T08:13:59.055Z,12.53
2022-10-19T08:16:39.916Z,12.54
2022-10-19T08:19:12.035Z,12.62
2022-10-19T08:21:43.057Z,12.70
2022-10-19T08:24:12.920Z,12.80
2022-10-19T08:26:40.611Z,12.87
2022-10-19T08:29:11.619Z,12.94
2022-10-19T08:31:38.885Z,12.99
2022-10-19T08:34:05.930Z,12.84
2022-10-19T08:36:34.982Z,12.73
2022-10-19T08:39:04.779Z,12.60
2022-10-19T08:41:40.624Z,12.61
2022-10-19T08:44:09.350Z,12.61
2022-10-19T08:46:39.524Z,12.59
2022-10-19T08:49:11.813Z,12.63
2022-10-19T08:51:44.328Z,12.72
2022-10-19T08:54:16.384Z,12.79
2022-10-19T08:57:26.049Z,12.83
2022-10-19T09:00:03.380Z,12.79
2022-10-19T09:03:12.296Z,12.65
2022-10-19T09:06:05.010Z,12.67
2022-10-19T09:08:33.294Z,12.64
2022-10-19T09:11:00.067Z,12.54
2022-10-19T09:14:00.577Z,12.50
2022-10-19T09:16:31.162Z,12.47
2022-10-19T09:18:57.914Z,12.44
2022-10-19T09:21:46.015Z,12.33
2022-10-19T09:24:31.801Z,12.25
2022-10-19T09:27:00.855Z,12.41
2022-10-19T09:29:30.074Z,12.57
2022-10-19T09:32:00.463Z,12.75
2022-10-19T09:34:37.551Z,12.93
2022-10-19T09:37:04.222Z,13.04
2022-10-19T09:39:31.164Z,13.14
2022-10-19T09:42:05.182Z,13.26
2022-10-19T09:44:31.881Z,13.34
2022-10-19T09:47:26.317Z,13.40
2022-10-19T09:50:16.349Z,13.42
2022-10-19T09:52:46.169Z,13.47
2022-10-19T09:55:12.702Z,13.56
2022-10-19T09:57:49.136Z,13.51
2022-10-19T10:00:21.377Z,13.30
2022-10-19T10:02:51.859Z,13.08
2022-10-19T10:05:19.686Z,12.88
2022-10-19T10:07:47.544Z,12.66
2022-10-19T10:10:28.086Z,12.42
2022-10-19T10:12:59.330Z,12.16
2022-10-19T10:15:30.195Z,11.96
2022-10-19T10:17:58.044Z,11.82
2022-10-19T10:20:32.004Z,11.81
2022-10-19T10:23:04.229Z,11.89
2022-10-19T10:25:35.762Z,12.02
2022-10-19T10:28:16.605Z,12.15
2022-10-19T10:30:45.697Z,12.24
2022-10-19T10:33:33.258Z,12.30
2022-10-19T10:36:09.504Z,12.39
2022-10-19T10:38:45.522Z,12.52
2022-10-19T10:41:17.175Z,12.68
2022-10-19T10:44:04.764Z,12.86
2022-10-19T10:47:02.265Z,13.12
2022-10-19T10:49:35.166Z,13.50
2022-10-19T10:52:07.405Z,14.01
2022-10-19T10:54:34.089Z,14.54
2022-10-19T10:57:16.073Z,14.83
2022-10-19T11:00:10.549Z,14.80
2022-10-19T11:02:56.011Z,14.64
2022-10-19T11:05:30.914Z,14.47
2022-10-19T11:08:24.818Z,14.47
2022-10-19T11:11:01.146Z,14.55
2022-10-19T11:13:40.577Z,15.31
2022-10-19T11:16:17.419Z,16.80
2022-10-19T11:18:48.446Z,17.73
2022-10-19T11:21:22.564Z,17.67
2022-10-19T11:23:59.734Z,17.28
2022-10-19T11:26:45.265Z,17.44
2022-10-19T11:29:37.627Z,18.34
2022-10-19T11:32:18.624Z,19.35
2022-10-19T11:34:48.128Z,20.01
2022-10-19T11:37:23.799Z,20.50
2022-10-19T11:40:12.459Z,20.96
2022-10-19T11:42:54.286Z,21.47
2022-10-19T11:46:15.438Z,21.64
2022-10-19T11:49:20.705Z,21.89
2022-10-19T11:52:14.575Z,21.82
2022-10-19T11:55:00.004Z,21.65
2022-10-19T11:57:55.325Z,21.60
2022-10-19T12:00:38.084Z,21.81
2022-10-19T12:03:24.795Z,21.46
2022-10-19T12:06:19.904Z,21.49
2022-10-19T12:09:09.199Z,20.93
2022-10-19T12:11:55.900Z,20.05
2022-10-19T12:14:43.190Z,19.15
2022-10-19T12:17:15.587Z,18.33
2022-10-19T12:19:47.751Z,17.78
2022-10-19T12:22:23.058Z,17.23
2022-10-19T12:24:50.632Z,16.58
2022-10-19T12:27:24.352Z,16.07
2022-10-19T12:29:52.792Z,15.67
2022-10-19T12:32:24.288Z,15.37
2022-10-19T12:35:04.352Z,15.22
2022-10-19T12:37:40.439Z,15.08
2022-10-19T12:40:24.035Z,14.96
2022-10-19T12:43:04.445Z,14.77
2022-10-19T12:45:35.929Z,15.71
2022-10-19T12:48:08.532Z,17.51
2022-10-19T12:50:47.657Z,19.25
2022-10-19T12:56:25.357Z,21.53
2022-10-19T12:59:01.204Z,22.30
2022-10-19T13:01:33.680Z,22.98
2022-10-19T13:04:17.488Z,23.47
2022-10-19T13:06:49.082Z,23.98
2022-10-19T13:09:44.157Z,24.56
2022-10-19T13:12:16.261Z,25.23
2022-10-19T13:14:52.174Z,25.69
2022-10-19T13:17:37.311Z,25.57
2022-10-19T13:20:13.217Z,25.78
2022-10-19T13:22:45.896Z,26.15
2022-10-19T13:25:23.628Z,26.56
2022-10-19T13:27:51.789Z,26.49
2022-10-19T13:30:46.131Z,25.49
2022-10-19T13:33:25.436Z,23.16
2022-10-19T13:35:57.838Z,20.71
2022-10-19T13:38:25.881Z,19.19
2022-10-19T13:40:52.343Z,18.01
2022-10-19T13:43:21.818Z,17.10
2022-10-19T13:46:07.328Z,16.35
2022-10-19T13:48:42.530Z,15.57
2022-10-19T13:51:29.385Z,14.94
2022-10-19T13:54:33.615Z,14.49
2022-10-19T13:57:12.784Z,14.60
2022-10-19T13:59:51.194Z,16.01
2022-10-19T14:02:43.435Z,17.75
2022-10-19T14:05:32.660Z,19.56
2022-10-19T14:08:27.623Z,19.49
2022-10-19T14:11:04.431Z,18.12
2022-10-19T14:13:31.239Z,16.84
2022-10-19T14:16:02.694Z,15.85
2022-10-19T14:18:35.311Z,15.10
2022-10-19T14:21:05.925Z,14.47
2022-10-19T14:23:39.678Z,13.92
2022-10-19T14:26:14.450Z,13.55
2022-10-19T14:28:42.877Z,13.27
2022-10-19T14:31:18.638Z,13.09
2022-10-19T14:33:50.121Z,12.90
2022-10-19T14:36:22.794Z,12.73
2022-10-19T14:38:55.455Z,12.58
2022-10-19T14:41:28.253Z,12.44
2022-10-19T14:43:56.799Z,12.34
2022-10-19T14:46:31.404Z,12.30
2022-10-19T14:49:10.588Z,12.26
2022-10-19T14:51:55.642Z,12.18
2022-10-19T14:54:36.594Z,12.16
2022-10-19T14:57:23.152Z,12.11
2022-10-19T14:59:56.557Z,12.04
2022-10-19T15:02:46.365Z,11.94
2022-10-19T15:05:23.165Z,11.80
2022-10-19T15:07:50.760Z,11.70
2022-10-19T15:10:23.010Z,11.63
2022-10-19T15:12:51.950Z,11.49
2022-10-19T15:15:28.411Z,11.38
2022-10-19T15:18:00.990Z,11.20
2022-10-19T15:21:11.728Z,11.05
2022-10-19T15:24:06.791Z,10.96
2022-10-19T15:26:34.035Z,10.86
2022-10-19T15:29:20.708Z,10.80
2022-10-19T15:31:47.530Z,10.72
2022-10-19T15:34:28.109Z,10.60
2022-10-19T15:37:00.870Z,10.52
2022-10-19T15:39:40.083Z,10.46
2022-10-19T15:42:23.310Z,10.38
2022-10-19T15:44:49.918Z,10.30
2022-10-19T15:47:18.453Z,10.25
2022-10-19T15:49:45.298Z,10.22
2022-10-19T15:52:25.717Z,10.18
2022-10-19T15:54:57.828Z,10.17
2022-10-19T15:57:34.730Z,10.13
2022-10-19T16:00:22.077Z,10.10
2022-10-19T16:02:48.599Z,10.05
2022-10-19T16:05:15.174Z,10.03
2022-10-19T16:07:41.695Z,9.96
2022-10-19T16:10:15.480Z,9.89
2022-10-19T16:12:42.202Z,9.82
2022-10-19T16:15:13.740Z,9.75
2022-10-19T16:17:40.567Z,9.68
2022-10-19T16:20:10.247Z,9.59
2022-10-19T16:22:36.856Z,9.53
2022-10-19T16:25:04.094Z,9.48
2022-10-19T16:27:30.720Z,9.43
2022-10-19T16:29:57.272Z,9.36
2022-10-19T16:32:23.874Z,9.31
2022-10-19T16:34:50.314Z,9.23
2022-10-19T16:37:16.795Z,9.18
2022-10-19T16:39:43.327Z,9.16
2022-10-19T16:42:09.860Z,9.12
2022-10-19T16:44:36.328Z,9.09
2022-10-19T16:47:03.475Z,9.07
2022-10-19T16:49:30.111Z,9.08
2022-10-19T16:51:57.796Z,9.03
2022-10-19T16:54:32.294Z,8.95
2022-10-19T16:56:58.834Z,8.87
2022-10-19T16:59:25.279Z,8.81
2022-10-19T17:01:51.931Z,8.75
2022-10-19T17:04:18.753Z,8.72
2022-10-19T17:06:45.438Z,8.65
2022-10-19T17:11:58.874Z,8.50
2022-10-19T17:14:25.485Z,8.45
2022-10-19T17:16:51.987Z,8.40
2022-10-19T17:19:18.581Z,8.35
2022-10-19T17:21:45.069Z,8.28
2022-10-19T17:24:20.123Z,8.23
2022-10-19T17:26:50.717Z,8.18
2022-10-19T17:29:18.804Z,8.15
2022-10-19T17:31:45.944Z,8.11
2022-10-19T17:34:12.614Z,8.07
2022-10-19T17:36:41.714Z,8.02
2022-10-19T17:39:17.269Z,8.00
2022-10-19T17:41:46.524Z,7.98
2022-10-19T17:44:14.085Z,7.98
2022-10-19T17:46:40.609Z,7.96
2022-10-19T17:49:07.517Z,7.93
2022-10-19T17:51:35.737Z,7.91
2022-10-19T17:54:08.070Z,7.92
2022-10-19T17:56:36.132Z,7.91
2022-10-19T17:59:04.063Z,7.89
2022-10-19T18:01:31.076Z,7.87
2022-10-19T18:03:57.591Z,7.85
2022-10-19T18:06:31.074Z,7.87
2022-10-19T18:08:59.574Z,7.81
2022-10-19T18:11:35.550Z,7.79
2022-10-19T18:14:03.150Z,7.75
2022-10-19T18:16:35.556Z,7.70
2022-10-19T18:19:03.419Z,7.65
2022-10-19T18:21:34.937Z,7.63
2022-10-19T18:24:02.951Z,7.59
2022-10-19T18:26:35.354Z,7.56
2022-10-19T18:29:14.655Z,7.53
2022-10-19T18:31:41.852Z,7.50
2022-10-19T18:34:13.865Z,7.46
2022-10-19T18:36:40.901Z,7.43
2022-10-19T18:39:07.525Z,7.40
2022-10-19T18:41:34.174Z,7.38
2022-10-19T18:44:05.174Z,7.34
2022-10-19T18:46:36.622Z,7.32
2022-10-19T18:49:06.333Z,7.31
2022-10-19T18:51:33.047Z,7.29
2022-10-19T18:54:00.039Z,7.27
2022-10-19T18:56:27.094Z,7.24
2022-10-19T18:58:53.629Z,7.21
2022-10-19T19:01:28.158Z,7.19
2022-10-19T19:03:57.694Z,7.15
2022-10-19T19:06:29.121Z,7.12
2022-10-19T19:08:58.060Z,7.10
2022-10-19T19:11:33.044Z,7.06
2022-10-19T19:14:13.561Z,7.01
2022-10-19T19:16:42.019Z,6.99
2022-10-19T19:19:11.951Z,6.97
2022-10-19T19:21:41.280Z,6.97
2022-10-19T19:24:11.271Z,6.94
2022-10-19T19:26:43.783Z,6.92
2022-10-19T19:29:10.400Z,6.89
2022-10-19T19:31:38.785Z,6.87
2022-10-19T19:34:05.954Z,6.86
2022-10-19T19:36:32.525Z,6.82
2022-10-19T19:38:59.198Z,6.79
2022-10-19T19:41:25.916Z,6.78
2022-10-19T19:43:52.534Z,6.77
2022-10-19T19:46:19.351Z,6.76
2022-10-19T19:48:48.001Z,6.74
2022-10-19T19:51:21.039Z,6.72
2022-10-19T19:53:47.759Z,6.70
2022-10-19T19:56:16.074Z,6.69
2022-10-19T19:58:44.128Z,6.65
2022-10-19T20:01:25.891Z,6.64
2022-10-19T20:03:52.765Z,6.62
2022-10-19T20:06:22.270Z,6.61
2022-10-19T20:08:52.360Z,6.56
2022-10-19T20:11:18.904Z,6.53
2022-10-19T20:13:45.790Z,6.51
2022-10-19T20:16:18.780Z,6.52
2022-10-19T20:18:48.880Z,6.50
2022-10-19T20:21:17.626Z,6.49
2022-10-19T20:23:45.680Z,6.45
2022-10-19T20:26:20.758Z,6.41
2022-10-19T20:28:49.515Z,6.37
2022-10-19T20:31:16.887Z,6.35
2022-10-19T20:33:44.588Z,6.32
2022-10-19T20:36:14.695Z,6.29
2022-10-19T20:38:48.882Z,6.27
2022-10-19T20:41:17.245Z,6.27
2022-10-19T20:43:43.940Z,6.24
2022-10-19T20:46:21.621Z,6.20
2022-10-19T20:48:49.774Z,6.18
2022-10-19T20:51:29.048Z,6.17
2022-10-19T20:54:01.364Z,6.14
2022-10-19T20:56:30.825Z,6.11
2022-10-19T20:59:19.168Z,6.09
2022-10-19T21:01:49.937Z,6.07
2022-10-19T21:04:16.696Z,6.04
2022-10-19T21:06:46.470Z,6.00
2022-10-19T21:09:16.567Z,5.98
2022-10-19T21:11:45.042Z,5.95
2022-10-19T21:14:14.569Z,5.94
2022-10-19T21:16:41.574Z,5.93
2022-10-19T21:19:12.585Z,5.88
2022-10-19T21:21:45.914Z,5.86
2022-10-19T21:24:19.319Z,5.83
2022-10-19T21:26:47.558Z,5.79
2022-10-19T21:29:15.960Z,5.79
2022-10-19T21:31:48.609Z,5.77
2022-10-19T21:34:18.993Z,5.76
2022-10-19T21:36:46.286Z,5.76
2022-10-19T21:39:13.225Z,5.74
2022-10-19T21:41:40.165Z,5.73
2022-10-19T21:44:08.205Z,5.70
2022-10-19T21:46:34.826Z,5.68
2022-10-19T21:49:01.526Z,5.68
2022-10-19T21:51:37.254Z,5.66
2022-10-19T21:54:06.377Z,5.64
2022-10-19T21:56:34.042Z,5.63
2022-10-19T21:59:00.658Z,5.58
2022-10-19T22:01:29.243Z,5.57
2022-10-19T22:03:58.582Z,5.57
2022-10-19T22:06:27.938Z,5.55
2022-10-19T22:08:55.703Z,5.54
2022-10-19T22:11:23.127Z,5.53
2022-10-19T22:13:56.900Z,5.51
2022-10-19T22:16:24.621Z,5.48
2022-10-19T22:18:52.472Z,5.46
2022-10-19T22:21:22.871Z,5.44
2022-10-19T22:23:54.643Z,5.43
2022-10-19T22:26:43.201Z,5.41
2022-10-19T22:29:09.722Z,5.37
2022-10-19T22:31:37.327Z,5.35
2022-10-19T22:34:07.731Z,5.34
2022-10-19T22:36:35.274Z,5.30
2022-10-19T22:39:03.668Z,5.28
2022-10-19T22:41:30.197Z,5.25
2022-10-19T22:43:56.813Z,5.25
2022-10-19T22:46:23.323Z,5.23
2022-10-19T22:48:49.845Z,5.22
2022-10-19T22:51:16.496Z,5.18
2022-10-19T22:53:43.065Z,5.16
2022-10-19T22:56:12.926Z,5.16
2022-10-19T22:58:39.626Z,5.13
2022-10-19T23:01:09.386Z,5.10
2022-10-19T23:03:38.871Z,5.08
2022-10-19T23:06:11.364Z,5.05
2022-10-19T23:08:38.724Z,5.03
2022-10-19T23:11:06.085Z,5.03
2022-10-19T23:13:32.690Z,5.03
2022-10-19T23:15:59.434Z,5.01
2022-10-19T23:18:26.039Z,5.02
2022-10-19T23:20:57.685Z,4.99
2022-10-19T23:23:24.314Z,4.97
2022-10-19T23:26:11.847Z,4.97
2022-10-19T23:28:40.496Z,4.93
2022-10-19T23:31:15.954Z,4.95
2022-10-19T23:33:43.551Z,4.92
2022-10-19T23:36:16.659Z,4.90
2022-10-19T23:38:49.946Z,4.89
2022-10-19T23:41:18.760Z,4.86
2022-10-19T23:43:45.931Z,4.87
2022-10-19T23:46:13.218Z,4.87
2022-10-19T23:48:41.504Z,4.86
2022-10-19T23:51:11.014Z,4.84
2022-10-19T23:53:41.133Z,4.83
2022-10-19T23:56:28.813Z,4.82
2022-10-19T23:58:56.565Z,4.83
